»·PEaware :: N8665R KSMX-L05

N8665R :: KSMX-L05

FLIGHT INFORMATION

Flight Status: Arrived
Operator: Privately registered:
United States
More flights under this callsign
Pilot: Joao Paulo C. (16594)
Aircraft: PIPER PA-24 COMMANCHE
(PA24)
More flights by this aircraft type
Origin: KSMX Santa Maria Pub/Capt Hancock
United States
Destination: L05 Kern Valley
United States
More flights between these airports :: More routes between these airports
Route:
File this flight plan on PilotEdge
Remarks:
Altitude:
(Current/Filed)
5,500ft
Speed:
(Current/Filed)
130kts
Departed: 01-Oct-17 12:59 PM
Arrived: 01-Oct-17 01:58 PM
Distance/Time
Traveled:
111nm/0:59
Distance/Time
To Go:
Arrived

Flight Plot

Page will automatically refresh every two minutes.

Flight plan parsing failed; only flown route is shown


Map Options




Map Legend


Flown Route
Filed Route
Departure Airport
Arrival Airport
Navaid (VOR, NDB)
Fix

Horizontal Profiles

Position Reports

Time Latitude Longitude Heading Altitude Ground
Speed
01-Oct-17 12:35 34.892740 -120.456794 179 264ft 0kts
01-Oct-17 12:36 34.892740 -120.456794 179 264ft 0kts
01-Oct-17 12:37 34.892740 -120.456794 179 264ft 0kts
01-Oct-17 12:38 34.892740 -120.456794 179 264ft 0kts
01-Oct-17 12:39 34.892740 -120.456794 179 264ft 0kts
01-Oct-17 12:40 34.892740 -120.456794 179 264ft 0kts
01-Oct-17 12:41 34.892740 -120.456794 179 264ft 0kts
01-Oct-17 12:42 34.892740 -120.456794 179 264ft 0kts
01-Oct-17 12:43 34.892740 -120.456794 179 264ft 0kts
01-Oct-17 12:44 34.892740 -120.456794 180 264ft 0kts
01-Oct-17 12:45 34.892738 -120.456794 180 264ft 0kts
01-Oct-17 12:46 34.892736 -120.456794 179 264ft 0kts
01-Oct-17 12:47 34.892734 -120.456794 180 264ft 0kts
01-Oct-17 12:48 34.892732 -120.456794 179 264ft 0kts
01-Oct-17 12:49 34.892730 -120.456794 179 264ft 0kts
01-Oct-17 12:50 34.892728 -120.456794 179 264ft 0kts
01-Oct-17 12:51 34.892726 -120.456794 179 264ft 0kts
01-Oct-17 12:52 34.892724 -120.456794 180 264ft 0kts
01-Oct-17 12:53 34.892722 -120.456794 179 264ft 0kts
01-Oct-17 12:54 34.892719 -120.456794 179 264ft 0kts
01-Oct-17 12:55 34.893035 -120.456624 1 264ft 6kts
01-Oct-17 12:56 34.893158 -120.454153 88 264ft 0kts
01-Oct-17 12:57 34.893158 -120.454150 88 264ft 0kts
01-Oct-17 12:58 34.893160 -120.454022 88 264ft 5kts
01-Oct-17 12:59 34.891733 -120.450853 90 264ft 19kts
01-Oct-17 13:00 34.892324 -120.446405 48 264ft 0kts
01-Oct-17 13:01 34.892327 -120.446402 48 264ft 0kts
01-Oct-17 13:02 34.892434 -120.446259 47 264ft 11kts
01-Oct-17 13:03 34.899538 -120.454206 314 415ft 88kts
01-Oct-17 13:04 34.916489 -120.477136 309 1439ft 88kts
01-Oct-17 13:05 34.943505 -120.476732 15 2967ft 109kts
01-Oct-17 13:06 34.973883 -120.462415 32 4351ft 123kts
01-Oct-17 13:07 34.972521 -120.415004 107 4646ft 154kts
01-Oct-17 13:08 34.953020 -120.370222 139 5148ft 145kts
01-Oct-17 13:09 34.918004 -120.344248 137 4918ft 152kts
01-Oct-17 13:10 34.920804 -120.305203 43 5260ft 121kts
01-Oct-17 13:11 34.944884 -120.272961 39 6407ft 145kts
01-Oct-17 13:12 34.971005 -120.238266 28 5719ft 131kts
01-Oct-17 13:13 35.000840 -120.211548 46 5117ft 130kts
01-Oct-17 13:14 35.012568 -120.169437 62 4648ft 136kts
01-Oct-17 13:15 35.044661 -120.164956 337 3998ft 136kts
01-Oct-17 13:16 35.076477 -120.156414 35 3383ft 125kts
01-Oct-17 13:17 35.094726 -120.121951 64 3394ft 133kts
01-Oct-17 13:18 35.103085 -120.081227 98 3355ft 132kts
01-Oct-17 13:19 35.086980 -120.038870 114 3716ft 141kts
01-Oct-17 13:20 35.066861 -119.999940 111 3652ft 136kts
01-Oct-17 13:21 35.057212 -119.955660 99 3730ft 134kts
01-Oct-17 13:22 35.042027 -119.913217 110 3724ft 138kts
01-Oct-17 13:23 35.021520 -119.870701 121 4334ft 144kts
01-Oct-17 13:24 34.991297 -119.835305 121 4171ft 151kts
01-Oct-17 13:25 34.978079 -119.790382 90 5054ft 145kts
01-Oct-17 13:26 34.969666 -119.741104 104 6436ft 144kts
01-Oct-17 13:27 34.954992 -119.694740 110 6205ft 146kts
01-Oct-17 13:28 34.952614 -119.651690 44 6239ft 127kts
01-Oct-17 13:29 34.981675 -119.626820 17 5824ft 129kts
01-Oct-17 13:30 35.011142 -119.600991 36 6011ft 130kts
01-Oct-17 13:31 35.037453 -119.568680 39 7331ft 132kts
01-Oct-17 13:32 35.062457 -119.534133 45 7755ft 140kts
01-Oct-17 13:33 35.088943 -119.498028 41 7950ft 143kts
01-Oct-17 13:34 35.118559 -119.464876 37 9248ft 143kts
01-Oct-17 13:35 35.146011 -119.426982 48 9445ft 146kts
01-Oct-17 13:36 35.171002 -119.386080 51 10639ft 151kts
01-Oct-17 13:37 35.177191 -119.331471 93 11350ft 175kts
01-Oct-17 13:38 35.193864 -119.282676 49 10936ft 162kts
01-Oct-17 13:39 35.221052 -119.240975 38 11331ft 155kts
01-Oct-17 13:40 35.254394 -119.209158 20 10818ft 146kts
01-Oct-17 13:41 35.285383 -119.176769 54 10933ft 149kts
01-Oct-17 13:42 35.307700 -119.133090 48 10590ft 146kts
01-Oct-17 13:43 35.326975 -119.089282 63 10379ft 148kts
01-Oct-17 13:44 35.340225 -119.039775 67 9971ft 156kts
01-Oct-17 13:45 35.353879 -118.988569 66 9409ft 156kts
01-Oct-17 13:46 35.379507 -118.948147 50 8488ft 149kts
01-Oct-17 13:47 35.399929 -118.907516 61 6840ft 145kts
01-Oct-17 13:48 35.418123 -118.862599 60 6339ft 146kts
01-Oct-17 13:49 35.436005 -118.817569 68 5512ft 148kts
01-Oct-17 13:50 35.456226 -118.776267 50 4697ft 145kts
01-Oct-17 13:51 35.474549 -118.736862 58 4562ft 132kts
01-Oct-17 13:52 35.498631 -118.703610 36 4176ft 145kts
01-Oct-17 13:53 35.528173 -118.674229 49 4154ft 131kts
01-Oct-17 13:54 35.545123 -118.632232 72 4535ft 142kts
01-Oct-17 13:55 35.561258 -118.587987 49 4329ft 145kts
01-Oct-17 13:56 35.575805 -118.542466 62 4689ft 145kts
01-Oct-17 13:57 35.601270 -118.505327 46 5126ft 141kts
01-Oct-17 13:58 35.633979 -118.481299 26 4669ft 133kts
01-Oct-17 13:59 35.657632 -118.443976 57 4828ft 139kts
01-Oct-17 14:00 35.684779 -118.424493 355 3499ft 101kts
01-Oct-17 14:01 35.711125 -118.421534 355 2927ft 84kts
01-Oct-17 14:02 35.730351 -118.419626 7 2617ft 14kts
01-Oct-17 14:03 35.729941 -118.419153 184 2617ft 14kts
01-Oct-17 14:04 35.724542 -118.418762 175 2617ft 27kts
01-Oct-17 14:05 35.722553 -118.417785 77 2617ft 0kts
01-Oct-17 14:06 35.722553 -118.417784 77 2617ft 0kts
01-Oct-17 14:07 35.722553 -118.417784 77 2617ft 0kts
01-Oct-17 14:08 35.722553 -118.417784 77 2617ft 0kts
01-Oct-17 14:09 35.722553 -118.417784 77 2617ft 0kts
01-Oct-17 14:10 35.722553 -118.417784 77 2617ft 0kts
01-Oct-17 14:11 35.722553 -118.417784 77 2617ft 0kts
01-Oct-17 14:12 35.722553 -118.417784 77 2617ft 0kts
01-Oct-17 14:13 35.722553 -118.417784 77 2617ft 0kts
01-Oct-17 14:14 35.722553 -118.417784 77 2617ft 0kts
01-Oct-17 14:15 35.722553 -118.417784 77 2617ft 0kts
01-Oct-17 14:16 35.722553 -118.417784 77 2617ft 0kts

Navigation Log

Ident Type
Flight plan parsing failed, navigation log unavailable